Date,TemperatureHighF,TemperatureAvgF,TemperatureLowF,DewpointHighF,DewpointAvgF,DewpointLowF,HumidityHigh,HumidityAvg,HumidityLow,PressureMaxIn,PressureMinIn,WindSpeedMaxMPH,WindSpeedAvgMPH,GustSpeedMaxMPH,PrecipitationSumIn
2013-1-1,76.2,65.7,54.5,61.6,58.5,52.9,97,79,60,30.22,30.04,8,1,19,0.01
2013-1-2,77.3,68.5,60.2,69.5,65.2,57.6,97,90,75,30.07,30.00,4,1,13,0.02
2013-1-3,69.8,64.5,59.2,67.8,63.3,57.8,99,96,89,30.18,30.03,10,2,18,0.02
2013-1-4,59.9,58.2,55.3,58.9,57.0,54.2,97,96,89,30.29,30.16,5,2,12,0.02
2013-1-5,71.0,62.2,55.7,62.7,57.8,51.8,95,86,72,30.30,30.19,6,2,12,0.02
2013-1-6,79.5,66.5,61.1,70.3,63.9,59.4,98,92,74,30.20,30.07,4,1,11,0.01
2013-1-7,65.7,62.5,59.0,63.7,59.6,54.4,96,90,79,30.22,30.11,9,5,17,0.01
2013-1-8,80.5,70.1,61.7,70.4,65.2,60.2,96,85,67,30.22,30.12,4,1,10,0.00
2013-1-9,83.8,74.4,67.7,72.0,68.6,66.1,97,83,62,30.29,30.17,5,0,18,0.00
2013-1-10,81.3,74.1,68.3,70.3,67.3,64.4,97,81,60,30.29,30.20,5,1,17,0.00
2013-1-11,82.2,72.7,65.5,69.2,65.5,63.3,95,80,55,30.27,30.13,7,1,17,0.00
2013-1-12,81.7,72.5,66.1,70.2,66.9,64.2,95,84,61,30.19,30.08,6,1,15,0.00
2013-1-13,80.3,72.2,66.3,68.7,65.9,63.9,93,81,63,30.17,30.06,3,0,11,0.00
2013-1-14,79.3,70.8,63.6,66.5,63.3,60.3,93,79,56,30.19,30.11,3,0,12,0.00
2013-1-15,80.3,70.1,62.4,67.7,64.3,60.3,95,83,61,30.15,30.06,5,0,13,0.00
2013-1-16,81.8,71.2,64.8,67.1,64.6,60.6,96,81,51,30.11,30.00,4,0,10,0.00
2013-1-17,71.5,63.2,53.5,69.4,59.2,45.6,96,87,68,30.17,29.99,7,3,22,0.23
2013-1-18,62.4,53.6,42.8,55.4,46.9,36.5,82,78,72,30.32,30.16,11,5,20,0.00
2013-1-19,73.1,63.7,54.4,62.3,56.6,48.7,88,78,66,30.28,30.13,7,2,14,0.00
2013-1-20,73.3,65.1,59.2,63.7,59.7,56.3,93,83,71,30.19,30.05,3,0,9,0.00
2013-1-21,72.3,64.8,60.6,63.5,58.4,53.4,90,80,70,30.12,30.03,5,1,13,0.00
2013-1-22,64.9,47.4,56.3,53.7,13.5,-99.9,79,45,37,30.29,30.09,5,-214,14,0.00
2013-1-23,67.2,37.4,50.0,48.0,-10.3,-99.9,85,35,39,30.38,30.27,4,-373,11,0.00
2013-1-24,69.7,57.2,46.7,55.3,50.1,44.3,95,79,50,30.35,30.26,8,1,14,0.00
2013-1-25,73.1,59.8,49.4,58.7,52.7,47.8,97,80,45,30.32,30.19,3,0,9,0.01
2013-1-26,71.5,61.7,50.8,59.8,56.4,49.1,97,84,64,30.29,30.18,7,1,13,0.01
2013-1-27,76.4,65.0,54.5,61.3,57.1,53.1,98,78,50,30.32,30.22,5,1,10,0.01
2013-1-28,79.5,70.4,62.6,66.3,63.5,58.7,95,80,57,30.32,30.20,5,1,14,0.00
2013-1-29,82.3,71.5,63.2,69.2,65.8,61.6,97,83,59,30.24,30.09,8,2,15,0.00
2013-1-30,79.1,72.5,66.9,68.4,66.6,63.9,91,82,66,30.09,29.91,13,6,30,0.00
2013-1-31,71.8,51.5,52.2,67.7,31.1,-99.9,96,62,46,30.25,29.92,13,-103,23,0.14
2013-2-1,65.5,28.3,50.7,44.5,-35.9,-99.9,61,20,28,30.37,30.23,8,-529,16,0.00
2013-2-2,70.1,29.5,50.5,49.0,-31.8,-99.9,73,25,30,30.32,30.17,6,-522,12,0.00
2013-2-3,68.5,39.7,46.1,55.5,0.8,-99.9,95,51,60,30.21,30.11,6,-338,15,0.00
2013-2-4,68.9,47.4,45.6,54.0,22.6,-99.9,97,60,34,30.15,30.05,3,-157,12,0.00
2013-2-5,69.9,27.3,53.2,50.9,-33.6,-99.9,78,28,51,30.10,30.01,1,-549,6,0.00
2013-2-6,76.4,69.6,62.9,61.3,58.9,56.6,80,70,59,30.06,30.05,1,0,3,0.00
2013-2-7,77.9,77.7,77.5,66.5,66.3,66.1,68,68,68,29.93,29.91,12,12,17,0.00
2013-2-8,67.2,67.2,67.2,62.2,62.2,62.2,84,84,84,30.04,30.04,1,1,1,0.00
2013-2-9,74.2,64.3,56.7,59.7,56.3,53.5,95,77,50,30.20,30.08,7,2,15,0.01
2013-2-10,79.6,69.4,61.5,64.1,60.7,56.4,88,75,54,30.24,30.14,8,2,21,0.00
2013-2-11,80.8,68.8,64.7,68.3,63.5,61.3,91,84,65,30.20,30.09,8,2,17,0.00
2013-2-12,80.5,73.0,66.8,71.8,68.3,-99.9,95,87,73,30.10,29.95,14,3,20,0.00
2013-2-13,80.1,71.2,60.1,73.4,68.2,56.2,97,90,80,30.01,29.86,9,3,23,0.36
2013-2-14,64.3,61.5,59.1,60.7,59.1,56.9,96,92,85,30.07,29.93,4,0,12,0.42
2013-2-15,65.8,58.6,55.1,58.1,54.7,52.1,96,87,66,30.10,29.97,4,0,9,0.01
2013-2-16,66.7,57.9,53.3,54.0,48.1,35.8,90,71,50,30.15,29.96,13,4,24,0.00
2013-2-17,53.0,36.9,41.4,38.2,-0.3,-99.9,58,36,34,30.35,30.15,11,-215,22,0.00
2013-2-18,67.4,40.0,44.5,51.1,-3.5,-99.9,84,38,41,30.37,30.20,8,-324,16,0.00
2013-2-19,75.7,65.3,54.3,62.7,57.2,49.8,93,76,56,30.22,30.09,6,1,16,0.00
2013-2-20,74.4,65.1,60.4,64.8,60.9,55.5,96,87,72,30.14,30.02,4,0,10,0.00
2013-2-21,80.8,68.6,60.1,67.9,62.5,55.8,92,82,62,30.12,29.99,5,1,12,0.00
2013-2-22,82.3,72.1,63.6,70.5,66.8,61.5,95,84,67,30.07,30.00,7,2,18,0.00
2013-2-23,78.7,72.6,68.9,73.1,70.0,67.7,97,92,81,30.01,29.91,9,2,21,0.00
2013-2-24,70.1,69.2,68.7,69.5,68.4,67.8,98,97,97,29.95,29.88,2,0,8,0.00
2013-2-25,82.3,72.2,68.3,72.8,68.9,67.1,96,90,64,29.91,29.78,5,1,16,0.00
2013-2-26,75.4,71.6,66.2,72.1,67.5,61.6,94,87,72,29.90,29.70,10,2,24,0.26
2013-2-27,69.8,64.2,59.0,61.6,57.4,53.3,88,79,65,30.00,29.88,5,1,12,0.00
2013-2-28,71.0,63.1,55.8,57.6,54.0,49.0,89,73,56,30.02,29.93,5,1,17,0.00
2013-3-1,60.4,56.9,53.3,50.1,45.2,38.8,77,65,54,30.04,29.93,7,2,16,0.00
2013-3-2,56.6,53.5,48.4,43.7,41.3,38.0,78,63,55,30.10,30.00,10,3,24,0.01
2013-3-3,52.9,47.8,42.9,40.5,36.6,31.6,72,65,58,30.17,30.00,10,3,21,0.00
2013-3-4,62.4,52.4,45.5,43.9,38.2,30.8,86,59,42,30.25,30.14,6,1,11,0.00
2013-3-5,71.5,59.6,43.7,62.1,52.4,40.7,91,78,59,30.18,30.05,7,2,16,0.00
2013-3-6,66.5,58.3,52.8,64.3,47.9,40.6,93,69,53,30.16,29.97,14,5,25,0.00
2013-3-7,61.2,51.9,44.5,45.6,39.9,34.6,88,65,43,30.25,30.15,9,1,14,0.00
2013-3-8,70.1,57.3,47.1,52.0,46.8,42.7,93,71,41,30.25,30.14,3,0,10,0.00
2013-3-9,73.7,62.5,54.0,54.2,49.5,45.7,84,65,39,30.23,30.14,5,1,11,0.00
2013-3-10,78.7,66.6,58.2,59.3,56.3,52.8,88,71,47,30.17,30.05,5,1,17,0.00
2013-3-11,77.3,68.7,60.7,63.1,59.7,56.8,88,74,54,30.11,29.89,7,2,22,0.00
2013-3-12,69.8,63.4,57.9,66.4,59.3,52.3,95,87,76,30.07,29.86,5,1,17,0.28
2013-3-13,68.4,55.5,56.7,52.9,32.5,-99.9,82,54,29,30.20,30.05,6,-94,16,0.00
2013-3-14,61.5,21.5,51.5,33.2,-49.4,-99.9,48,15,28,30.29,30.18,9,-612,16,0.00
2013-3-15,69.3,25.1,46.2,48.0,-40.7,-99.9,93,22,31,30.31,30.18,4,-83,15,0.00
2013-3-16,74.6,42.5,50.6,59.0,-3.1,-99.9,96,40,37,30.20,30.08,3,-362,12,0.00
2013-3-17,75.7,64.5,53.2,61.8,57.7,51.0,95,80,58,30.14,30.01,7,1,16,0.01
2013-3-18,74.2,68.3,62.4,68.3,63.4,58.7,92,84,76,30.04,29.87,9,2,19,0.00
2013-3-19,82.7,70.2,63.3,68.2,64.4,61.8,97,83,60,30.03,29.91,5,0,13,0.00
2013-3-20,71.9,66.5,59.9,66.1,62.8,57.8,94,88,74,29.99,29.82,7,1,15,0.14
2013-3-21,65.6,50.2,53.6,58.3,22.3,-99.9,95,53,32,30.02,29.89,8,-158,15,0.00
2013-3-22,75.8,40.8,53.7,67.4,-6.9,-99.9,91,40,47,30.02,29.90,10,-395,15,0.09
2013-3-23,79.8,71.8,65.5,74.4,69.3,64.0,96,92,81,29.96,29.81,7,2,20,0.01
2013-3-24,79.3,73.3,68.6,74.3,70.9,66.2,96,92,84,29.81,29.66,10,3,28,0.00
2013-3-25,68.5,62.7,56.5,66.2,53.8,38.1,93,74,44,30.07,29.77,13,4,24,0.00
2013-3-26,58.8,44.9,49.4,47.3,15.6,-99.9,67,48,51,30.27,30.06,14,-166,29,0.00
2013-3-27,54.5,25.3,44.7,41.4,-32.3,-99.9,68,29,48,30.35,30.23,14,-505,20,0.00
2013-3-28,63.9,21.5,49.5,43.0,-47.4,-99.9,74,20,34,30.32,30.24,3,-621,11,0.00
2013-3-29,73.6,45.1,51.9,52.2,2.6,-99.9,86,39,28,30.33,30.21,2,0,14,0.00
2013-3-30,74.5,64.0,53.4,56.9,52.9,48.8,88,69,42,30.26,30.14,3,1,17,0.00
2013-3-31,77.9,68.0,58.4,62.9,58.4,53.1,88,73,44,30.16,30.01,4,1,19,0.00
2013-4-1,79.1,72.0,66.8,69.7,66.0,62.1,94,82,67,30.05,29.97,4,1,17,0.00
2013-4-2,82.7,68.2,63.1,66.9,63.5,60.5,95,86,51,30.11,30.01,2,0,9,0.00
2013-4-3,84.4,72.7,64.5,69.5,66.2,61.8,93,81,59,30.09,29.95,8,1,18,0.06
2013-4-4,73.0,70.3,67.2,69.9,67.3,64.6,95,90,75,30.05,29.86,6,1,19,0.62
2013-4-5,70.7,66.4,61.8,66.7,61.9,56.6,94,86,65,30.01,29.81,10,3,18,0.19
2013-4-6,74.5,63.9,55.6,62.0,56.4,51.5,89,78,55,30.12,30.00,9,2,14,0.00
2013-4-7,80.3,70.3,61.6,63.1,60.6,58.0,93,73,49,30.15,30.05,6,1,13,0.00
2013-4-8,84.5,73.9,66.0,66.0,62.0,57.3,86,68,40,30.14,30.04,4,0,16,0.00
2013-4-9,83.7,74.6,66.5,67.9,65.3,63.5,92,74,54,30.16,30.06,6,1,17,0.00
2013-4-10,86.3,75.5,66.2,69.2,65.8,62.5,91,73,51,30.12,29.97,4,1,14,0.00
2013-4-11,87.8,78.0,71.8,73.2,71.4,67.2,93,81,61,29.98,29.81,8,2,20,0.09
2013-4-12,79.1,76.2,72.0,75.0,72.6,68.9,92,89,83,29.93,29.78,11,2,23,0.00
2013-4-13,86.7,75.2,69.1,71.0,67.9,65.2,94,79,53,29.99,29.88,4,0,9,0.00
2013-4-14,83.7,75.2,67.2,74.5,69.1,61.7,91,82,68,30.01,29.85,15,2,27,0.05
2013-4-15,87.9,76.7,69.2,72.8,66.9,62.2,85,72,56,30.07,29.93,4,0,17,0.00
2013-4-16,90.1,79.8,70.2,73.8,70.5,66.8,94,75,51,30.13,30.03,7,1,16,0.00
2013-4-17,86.6,78.1,70.6,69.3,66.9,62.8,91,70,46,30.14,30.01,10,2,17,0.00
2013-4-18,86.3,78.1,70.6,72.6,69.1,65.5,89,75,53,30.04,29.94,5,1,14,0.00
2013-4-19,87.3,79.3,73.3,74.4,72.1,69.2,94,80,58,30.01,29.93,11,3,25,0.00
2013-4-20,76.9,68.9,61.4,73.6,64.1,58.1,92,85,75,30.15,29.97,10,4,20,0.03
2013-4-21,80.8,69.4,60.9,70.0,64.6,57.7,93,85,70,30.15,30.02,8,3,15,0.05
2013-4-22,78.8,71.6,67.1,70.5,67.4,63.6,97,87,71,30.08,29.98,11,2,17,0.13
2013-4-23,83.6,73.3,65.6,68.3,64.5,61.4,91,75,53,30.11,30.02,10,2,20,0.00
2013-4-24,84.7,73.7,64.7,67.4,63.4,52.2,90,72,35,30.15,30.07,5,0,13,0.00
2013-4-25,82.8,74.6,66.4,70.1,66.7,64.1,94,77,60,30.20,30.11,4,0,14,0.00
2013-4-26,86.7,76.4,67.4,71.2,67.3,64.0,91,74,51,30.25,30.15,4,0,12,0.00
2013-4-27,85.3,76.9,70.6,70.8,67.7,63.7,91,74,49,30.22,30.08,6,1,14,0.00
2013-4-28,85.6,76.7,70.4,69.4,66.1,62.3,84,71,47,30.13,29.97,5,1,15,0.01
2013-4-29,82.3,76.8,71.2,71.9,68.2,62.5,88,75,63,30.03,29.91,4,1,14,0.00
2013-4-30,87.5,75.1,68.4,72.5,68.7,64.4,95,82,48,30.00,29.90,5,0,14,0.55
2013-5-1,74.0,71.0,66.4,72.1,68.6,64.9,96,92,87,30.01,29.91,2,0,10,0.96
2013-5-2,78.6,71.1,66.3,71.6,67.8,64.5,95,90,78,29.98,29.82,6,1,12,0.03
2013-5-3,80.4,73.5,68.1,71.2,68.3,65.4,96,85,68,29.84,29.73,5,1,16,0.16
2013-5-4,78.9,72.0,66.9,69.2,66.7,64.2,93,84,70,29.82,29.69,5,1,20,0.00
2013-5-5,73.6,68.5,63.3,65.8,57.4,51.2,94,69,49,29.95,29.81,12,4,22,0.01
2013-5-6,71.8,68.5,63.7,63.1,58.3,55.9,79,70,59,30.02,29.90,5,1,15,0.00
2013-5-7,75.6,68.8,60.0,62.8,59.3,55.6,88,72,57,30.06,29.98,3,1,16,0.00
2013-5-8,78.0,70.5,61.1,64.3,61.8,58.1,92,75,55,30.15,30.04,3,0,13,0.00
2013-5-9,82.7,72.4,63.1,68.3,64.1,60.6,93,77,50,30.16,30.09,4,0,12,0.00
2013-5-10,88.4,77.3,68.7,72.2,68.2,63.8,93,75,48,30.14,30.00,3,0,14,0.00
2013-5-11,86.7,77.7,72.7,74.7,71.8,68.2,94,83,59,30.06,30.00,7,1,17,0.00
2013-5-12,85.1,77.0,71.9,73.5,70.4,67.9,95,81,64,30.06,29.94,5,0,13,0.00
2013-5-13,82.1,73.9,69.8,69.2,61.3,46.9,91,67,35,30.14,30.02,11,2,18,0.00
2013-5-14,81.2,72.4,64.9,62.1,52.0,43.3,73,50,30,30.23,30.12,6,2,13,0.00
2013-5-15,85.1,74.8,66.5,64.7,60.6,55.3,79,63,38,30.22,30.07,4,0,15,0.00
2013-5-16,85.5,76.0,68.5,68.4,64.5,59.9,84,69,44,30.13,30.00,5,0,10,0.00
2013-5-17,85.9,77.7,70.5,68.8,67.0,64.5,85,70,53,30.10,30.02,3,0,10,0.00
2013-5-18,88.6,78.9,71.6,74.0,69.3,64.0,91,74,49,30.11,30.02,4,0,14,0.00
2013-5-19,87.9,79.1,70.4,72.4,69.3,67.2,94,74,54,30.10,29.99,3,0,13,0.00
2013-5-20,89.8,79.7,75.0,75.7,70.6,66.1,86,74,51,30.07,29.97,7,0,17,0.00
2013-5-21,87.2,76.6,71.3,73.4,70.0,67.4,92,81,54,30.04,29.92,11,1,21,0.00
2013-5-22,86.4,77.9,72.1,74.0,71.0,69.0,91,80,59,29.98,29.89,5,0,12,0.00
2013-5-23,86.3,79.1,72.1,74.4,72.0,69.5,93,80,66,30.02,29.92,6,1,17,0.00
2013-5-24,89.3,80.8,72.7,76.8,71.5,63.0,93,75,45,30.08,29.98,7,2,15,0.00
2013-5-25,89.5,81.7,74.8,71.4,67.0,62.5,83,63,41,30.18,30.06,8,3,14,0.00
2013-5-26,85.6,77.8,69.0,64.8,60.8,52.5,79,58,35,30.22,30.10,6,1,14,0.00
2013-5-27,87.8,78.7,69.5,68.2,65.1,61.8,85,64,44,30.18,30.04,8,2,16,0.00
2013-5-28,89.8,78.4,72.0,75.1,70.8,68.1,93,79,55,30.15,30.02,10,2,17,0.59
2013-5-29,86.3,78.4,73.5,74.7,71.7,67.7,92,80,66,30.09,30.02,12,3,21,0.28
2013-5-30,88.8,80.4,75.3,74.6,72.2,70.0,90,77,61,30.09,30.00,13,4,22,0.00
2013-5-31,87.9,79.8,74.7,74.8,72.0,69.3,85,77,63,30.08,30.00,7,3,18,0.00
2013-6-1,87.9,80.3,75.3,77.6,73.7,71.4,90,81,65,30.05,29.94,6,2,13,0.42
2013-6-2,87.4,79.7,73.3,76.6,74.5,71.8,96,85,69,29.99,29.90,6,1,14,0.00
2013-6-3,86.0,78.9,76.6,77.0,74.7,73.3,93,87,72,30.00,29.90,7,1,16,0.20
2013-6-4,86.1,79.8,76.3,75.7,73.9,71.8,91,82,70,30.02,29.93,5,1,15,0.08
2013-6-5,84.8,78.9,74.4,76.0,73.3,71.2,92,83,70,30.01,29.89,8,2,15,0.07
2013-6-6,81.5,76.4,73.4,76.1,73.2,71.9,96,90,79,29.90,29.65,16,6,27,3.14
2013-6-7,84.8,79.6,73.8,75.6,73.5,71.1,92,82,71,29.96,29.79,7,2,14,0.00
2013-6-8,88.1,79.5,72.9,77.5,74.4,71.0,95,85,70,30.10,29.96,6,1,18,0.29
2013-6-9,90.0,79.6,73.6,78.2,74.1,71.2,95,84,63,30.10,30.01,8,1,16,0.01
2013-6-10,90.2,82.2,76.9,77.2,75.1,72.9,92,80,62,30.09,30.01,5,1,15,0.00
2013-6-11,87.3,80.2,77.6,78.7,75.4,73.3,91,86,74,30.09,30.04,2,0,7,0.00
2013-6-12,90.2,80.4,74.7,78.9,74.0,71.4,92,81,63,30.09,30.00,3,0,13,0.00
2013-6-13,89.5,82.8,76.7,76.7,74.9,72.4,93,78,58,30.05,29.91,2,0,12,0.00
2013-6-14,88.2,82.1,78.1,76.1,74.7,72.9,86,79,63,29.97,29.88,6,1,14,0.00
2013-6-15,89.3,82.9,78.7,78.6,76.4,74.0,90,81,68,30.06,29.91,3,0,12,0.00
2013-6-16,92.6,83.7,78.8,79.7,76.8,75.5,91,80,61,30.08,30.01,4,0,13,0.00
2013-6-17,91.9,84.9,78.8,78.4,76.0,74.1,90,76,58,30.07,29.99,3,0,13,0.00
2013-6-18,91.2,84.2,77.4,77.6,76.1,74.2,92,78,62,30.06,29.97,3,0,11,0.00
2013-6-19,91.8,84.6,78.9,78.6,76.7,74.9,91,78,61,30.04,29.97,4,0,12,0.00
2013-6-20,89.8,82.7,76.2,79.1,75.3,71.7,90,79,59,30.10,30.00,4,0,13,0.37
2013-6-21,86.0,78.8,76.1,76.7,73.1,71.7,89,83,70,30.10,30.04,1,0,7,0.01
2013-6-22,91.6,81.1,74.4,75.6,72.8,69.9,93,78,53,30.12,30.04,7,0,20,0.07
2013-6-23,91.4,81.3,74.2,76.8,74.5,71.7,94,81,56,30.13,30.05,5,0,16,0.18
2013-6-24,91.5,82.7,75.1,77.1,74.8,72.1,95,78,55,30.18,30.05,4,0,14,1.76
2013-6-25,92.2,81.5,75.8,77.2,74.6,71.0,96,81,54,30.14,30.02,3,0,11,0.00
2013-6-26,90.3,79.4,75.5,78.7,75.4,73.7,96,88,64,30.08,30.00,3,0,17,0.09
2013-6-27,89.8,79.6,74.4,78.5,74.8,71.8,94,86,65,30.05,29.95,5,0,13,0.40
2013-6-28,88.9,83.2,77.1,78.5,76.4,74.1,91,81,69,29.98,29.85,7,1,17,0.00
2013-6-29,85.7,81.1,77.6,78.0,75.4,72.8,90,83,77,29.89,29.80,7,0,18,0.22
2013-6-30,88.7,83.0,77.6,78.9,76.1,73.1,89,80,68,29.88,29.80,7,1,19,0.00
2013-7-1,81.2,76.4,72.8,77.0,73.9,70.7,96,92,86,29.99,29.82,8,1,18,1.73
2013-7-2,88.7,78.7,73.2,77.6,74.0,71.9,96,86,67,30.08,29.95,10,0,16,1.63
2013-7-3,88.9,79.3,74.5,78.0,74.4,71.3,92,86,68,30.10,30.02,8,1,15,0.85
2013-7-4,89.7,78.6,73.4,77.5,73.8,70.9,94,86,64,30.16,30.04,4,1,17,0.68
2013-7-5,89.6,78.5,73.3,78.1,74.5,71.4,95,88,65,30.13,30.06,7,0,33,0.40
2013-7-6,91.6,82.3,75.4,78.1,75.0,72.5,94,80,56,30.10,30.02,4,1,18,0.11
2013-7-7,91.9,81.6,76.6,78.0,75.5,74.0,95,83,58,30.13,30.02,7,1,20,0.39
2013-7-8,92.2,82.8,76.7,77.9,75.2,72.4,93,79,55,30.15,30.06,4,0,15,0.02
2013-7-9,92.1,86.7,77.4,78.0,74.7,72.0,90,69,53,30.17,30.04,5,0,13,0.14
2013-7-10,88.1,79.1,76.9,76.2,74.1,69.7,91,85,60,30.09,30.03,0,0,1,0.00
2013-7-11,86.8,80.3,73.8,78.6,75.3,71.6,96,85,72,30.02,29.92,4,0,20,1.08
2013-7-12,88.5,79.4,76.1,77.6,74.9,72.3,93,86,65,29.95,29.89,4,0,12,0.10
2013-7-13,84.8,78.2,74.1,76.6,74.3,71.2,95,88,72,29.98,29.90,5,0,11,0.08
2013-7-14,83.9,78.3,74.5,78.3,74.7,72.1,94,89,77,30.08,29.95,3,0,12,0.06
2013-7-15,90.3,80.5,74.8,76.8,73.7,72.0,92,81,60,30.11,30.01,9,1,13,0.04
2013-7-16,90.5,79.9,76.3,75.7,73.6,71.0,91,82,58,30.15,30.07,12,2,21,0.02
2013-7-17,90.5,80.2,75.9,77.1,74.4,72.6,93,83,61,30.16,30.06,10,2,12,0.01
2013-7-18,86.5,78.1,74.5,75.5,73.2,71.6,94,86,67,30.11,30.03,5,0,17,0.03
2013-7-19,87.5,77.9,74.1,77.2,73.9,71.8,95,88,71,30.12,30.04,6,1,16,0.01
2013-7-20,89.5,80.2,74.8,79.5,74.9,72.4,94,85,64,30.10,30.01,8,0,21,0.02
2013-7-21,90.0,83.0,76.3,79.3,77.0,73.5,94,83,69,30.12,30.04,5,1,17,0.01
2013-7-22,89.8,82.8,79.4,79.3,77.5,76.2,92,85,69,30.13,30.06,6,0,18,0.01
2013-7-23,87.9,82.5,78.7,77.2,76.1,74.4,90,81,68,30.09,29.97,4,0,16,0.00
2013-7-24,87.9,83.2,80.0,78.1,76.8,75.6,88,81,70,30.01,29.91,5,1,17,0.00
2013-7-25,87.3,83.4,80.5,78.2,77.2,75.4,88,82,69,30.01,29.88,6,1,21,0.01
2013-7-26,90.3,80.7,76.6,79.6,76.8,72.9,96,89,60,30.02,29.95,6,0,18,0.00
2013-7-27,91.6,84.0,78.3,78.2,76.3,71.6,94,79,55,30.01,29.92,2,0,13,0.00
2013-7-28,88.9,82.4,77.6,78.8,76.0,72.0,92,82,65,30.02,29.94,4,0,8,0.00
2013-7-29,92.4,81.2,75.6,78.4,74.7,69.5,93,82,51,30.15,30.02,1,0,6,0.00
2013-7-30,93.8,85.2,79.3,79.8,76.0,72.5,87,75,55,30.18,30.05,5,0,14,0.00
2013-7-31,92.9,80.8,76.9,79.1,75.7,70.5,95,85,50,30.13,30.00,6,0,13,0.01
2013-8-1,90.9,81.5,78.7,77.2,75.6,74.5,88,83,62,30.06,29.96,1,0,9,0.00
2013-8-2,90.6,81.4,76.8,78.3,75.4,73.4,92,83,63,30.05,29.94,3,0,10,0.00
2013-8-3,90.5,84.4,78.1,79.3,76.9,75.2,92,79,65,30.10,30.00,3,0,12,0.00
2013-8-4,90.0,84.4,79.9,80.1,77.9,75.6,91,81,67,30.09,29.99,5,0,14,0.00
2013-8-5,91.4,85.7,80.9,79.9,78.1,75.2,89,78,64,30.03,29.93,2,0,12,0.00
2013-8-6,92.6,83.1,77.9,80.8,77.0,73.3,95,83,62,29.99,29.89,3,0,13,0.00
2013-8-7,93.7,83.9,78.9,79.8,77.2,73.5,91,81,58,29.97,29.89,13,0,17,0.00
2013-8-8,93.0,82.6,74.2,79.2,76.3,71.4,93,82,59,30.02,29.92,5,0,19,0.00
2013-8-9,91.7,80.2,76.5,78.0,75.5,72.7,92,86,59,30.00,29.96,7,0,16,0.00
2013-8-10,92.1,83.6,75.8,78.5,76.0,73.3,93,79,60,30.12,30.03,4,0,16,0.04
2013-8-11,93.7,85.5,79.0,79.1,76.7,74.9,90,76,55,30.15,30.04,2,0,11,0.04
2013-8-12,93.1,84.1,79.8,80.9,77.6,76.0,89,81,59,30.12,30.00,6,0,16,0.02
2013-8-13,94.0,85.6,79.5,79.6,77.1,70.2,88,76,49,30.05,29.93,4,0,15,0.35
2013-8-14,84.3,83.9,83.1,79.2,78.8,77.0,86,85,82,30.00,29.95,1,0,9,0.00
2013-8-15,90.4,84.2,79.2,78.6,76.8,74.3,88,79,64,30.04,29.94,4,0,17,0.01
2013-8-16,92.3,85.3,80.8,78.6,76.4,73.4,90,75,59,30.05,29.96,3,0,15,0.07
2013-8-17,93.0,82.9,77.0,80.3,76.4,72.7,95,82,60,30.08,29.98,4,0,17,0.12
2013-8-18,91.4,81.9,76.1,78.9,76.8,74.4,95,85,61,30.09,30.01,3,0,14,0.14
2013-8-20,91.7,86.3,77.1,78.5,76.9,74.6,92,74,60,30.07,29.98,3,0,9,0.01
2013-8-21,93.1,82.0,76.5,79.0,76.2,71.6,93,84,58,30.10,29.98,6,0,17,0.01
2013-8-22,91.5,80.7,74.7,79.2,76.2,72.2,94,87,65,30.08,29.97,8,0,23,0.02
2013-8-23,91.7,81.0,75.3,79.6,76.3,71.6,96,86,60,30.02,29.95,3,0,14,0.03
2013-8-24,91.2,81.2,77.4,80.0,75.9,73.7,93,84,60,30.12,29.99,9,1,22,0.04
2013-8-25,87.0,79.9,76.6,76.9,75.4,74.0,93,87,70,30.15,30.07,4,0,14,0.02
2013-8-26,89.7,79.2,76.6,77.3,75.1,73.5,94,88,62,30.14,30.00,8,0,14,0.01
2013-8-27,89.2,79.6,75.3,77.6,74.7,72.0,95,86,58,30.05,29.98,4,1,15,0.01
2013-8-28,90.6,80.8,75.2,75.6,73.7,70.6,94,80,54,30.06,29.97,4,0,11,0.02
2013-8-29,89.3,81.9,74.8,76.7,74.7,72.3,94,80,62,30.04,29.94,3,0,13,0.01
2013-8-30,90.0,82.9,78.8,79.2,76.5,72.9,91,82,62,30.00,29.89,4,0,17,0.01
2013-8-31,89.0,81.1,73.6,77.6,75.0,71.7,96,82,66,30.00,29.88,6,0,12,0.02
2013-9-1,90.2,83.0,76.9,78.1,75.5,73.2,93,79,62,29.99,29.91,2,0,9,0.01
2013-9-2,89.5,83.2,78.6,78.4,75.7,74.4,92,79,62,30.02,29.93,2,0,13,0.02
2013-9-3,90.9,84.1,78.0,77.7,75.9,73.0,91,77,62,30.02,29.93,2,0,10,0.02
2013-9-4,93.0,84.3,79.2,78.3,76.8,73.1,91,79,54,30.07,29.96,5,0,16,0.03
2013-9-5,92.8,83.1,77.2,79.8,76.0,71.8,92,80,59,30.09,29.99,3,0,12,0.05
2013-9-6,92.1,83.2,79.4,80.3,77.3,75.1,90,83,62,30.06,29.99,2,0,6,0.03
2013-9-7,89.1,65.2,74.0,76.0,40.0,-99.9,91,64,55,30.02,29.91,3,0,15,0.05
2013-9-8,90.6,24.1,84.4,75.1,-52.3,-99.9,70,17,55,29.98,29.86,3,0,13,0.02
2013-9-9,91.7,8.6,88.4,73.6,-83.6,-99.9,59,5,52,30.03,29.93,6,-101,13,0.00
2013-9-10,91.1,40.8,79.7,76.5,-18.9,-99.9,86,30,51,30.08,29.98,9,-530,16,0.00
2013-9-11,91.7,42.0,78.1,76.6,-16.5,-99.9,90,31,48,30.08,29.98,9,-514,16,0.00
2013-9-12,88.9,38.8,78.1,76.7,-18.8,-99.9,91,35,61,30.03,29.93,3,-538,10,0.00
2013-9-13,88.0,39.1,78.2,78.3,-17.4,-99.9,90,37,67,29.91,29.82,2,0,11,0.10
2013-9-14,89.8,43.2,77.1,78.4,-11.5,-99.9,96,37,64,29.98,29.84,2,0,10,0.00
2013-9-15,93.0,32.8,75.8,78.2,-33.4,-99.9,90,27,58,30.07,29.96,12,1,26,0.00
2013-9-16,91.8,30.5,78.7,77.0,-37.7,-99.9,88,25,58,30.07,29.98,8,0,25,0.00
2013-9-17,90.5,31.2,77.2,77.5,-34.1,-99.9,90,29,59,30.06,29.94,9,-108,13,0.00
2013-9-18,89.6,38.5,77.3,76.9,-19.4,-99.9,91,36,63,30.04,29.95,12,-536,20,0.15
2013-9-19,89.1,34.3,77.4,76.8,-28.6,-99.9,91,31,64,30.06,29.96,7,-592,11,0.00
2013-9-20,89.5,55.8,72.5,73.9,12.5,-99.9,95,42,50,30.03,29.89,7,-338,14,0.03
2013-9-21,90.8,82.2,75.3,75.5,70.8,66.4,84,69,50,29.94,29.78,5,3,11,0.00
2013-9-22,89.3,83.2,79.2,79.1,75.9,70.9,93,79,64,29.85,29.75,9,3,19,0.00
2013-9-23,82.5,79.5,76.6,78.3,76.6,74.7,96,91,85,29.95,29.82,7,3,18,0.49
2013-9-24,81.2,78.5,75.0,77.9,76.0,73.6,97,92,84,29.95,29.84,7,4,18,1.88
2013-9-25,80.9,76.6,70.7,78.3,74.2,69.7,98,92,83,29.92,29.79,9,3,18,1.85
2013-9-26,87.8,81.9,76.7,78.9,76.3,72.2,94,83,69,29.88,29.78,8,4,21,0.00
2013-9-27,86.8,77.5,71.3,73.2,70.8,68.9,93,81,59,29.97,29.87,10,4,21,0.00
2013-9-28,88.4,78.8,72.5,74.2,71.8,69.8,94,80,56,30.00,29.92,12,5,19,0.00
2013-9-29,88.6,79.9,72.5,73.2,70.0,65.5,91,73,48,30.00,29.89,6,4,13,0.00
2013-9-30,88.2,80.3,74.4,73.9,71.8,66.9,91,76,51,30.00,29.91,8,3,14,0.00
2013-10-1,90.4,82.6,75.2,74.7,72.1,67.6,91,72,49,30.05,29.95,6,3,15,0.00
2013-10-2,89.2,81.6,74.5,73.6,71.9,70.6,89,73,55,30.06,29.96,8,5,15,0.00
2013-10-3,89.6,81.8,75.4,75.5,71.8,68.4,88,73,52,30.07,29.97,6,4,12,0.00
2013-10-4,88.5,81.8,76.8,75.8,73.4,69.1,88,77,56,30.09,30.00,6,3,11,0.00
2013-10-5,89.5,82.0,75.9,75.5,72.6,69.4,87,74,53,30.06,29.93,6,3,12,0.00
2013-10-6,90.1,81.9,74.9,75.6,72.9,68.2,95,76,49,29.99,29.86,5,2,11,0.00
2013-10-7,86.4,80.6,75.7,79.2,75.7,73.1,96,85,74,29.87,29.74,10,5,22,0.75
2013-10-8,85.8,80.7,76.5,77.1,74.8,70.9,94,83,69,29.96,29.80,8,4,15,0.11
2013-10-9,80.6,75.3,71.1,71.3,69.1,66.4,87,81,67,30.05,29.95,9,5,16,0.00
2013-10-10,85.3,75.9,68.5,70.7,67.7,65.5,91,77,54,30.07,29.97,6,3,13,0.00
2013-10-11,86.3,77.4,69.1,70.9,67.6,63.9,95,73,52,30.05,29.95,6,2,11,0.00
2013-10-12,85.0,76.5,69.3,69.2,65.5,60.9,94,71,45,30.06,29.97,8,2,12,0.00
2013-10-13,85.7,76.9,68.8,71.4,65.2,60.3,89,69,44,30.09,29.99,4,2,11,0.00
2013-10-14,84.3,77.0,71.4,70.3,67.5,63.5,90,74,51,30.06,29.93,8,4,14,0.00
2013-10-15,80.8,73.6,68.6,72.0,68.9,66.7,95,86,70,30.02,29.91,6,4,13,0.00
2013-10-16,82.1,76.0,71.7,71.4,69.6,67.7,92,81,63,29.98,29.90,6,3,10,0.00
2013-10-17,85.1,77.6,71.9,74.3,71.5,69.5,94,82,64,29.98,29.90,5,2,10,0.00
2013-10-18,89.8,79.7,72.4,75.0,72.4,70.4,96,80,54,29.99,29.90,6,2,12,0.00
2013-10-19,87.4,80.1,74.2,76.5,74.3,71.9,94,83,65,29.95,29.87,6,2,11,0.00
2013-10-20,88.3,80.4,75.5,76.5,74.2,71.5,96,82,61,29.96,29.87,5,2,10,0.00
2013-10-21,85.2,79.3,75.2,77.1,74.0,72.3,94,84,66,30.00,29.92,6,2,11,0.00
2013-10-22,87.3,78.5,73.3,76.8,73.8,71.4,98,86,64,29.96,29.83,10,3,19,0.25
2013-10-23,78.4,74.5,71.6,73.4,64.9,52.5,96,74,45,30.02,29.82,12,5,18,0.05
2013-10-24,72.8,68.5,64.1,60.0,52.0,46.8,76,56,44,30.17,30.01,9,5,19,0.00
2013-10-25,79.8,70.1,61.1,61.7,57.3,51.6,90,66,39,30.25,30.15,7,3,12,0.00
2013-10-26,78.3,68.6,62.2,60.2,57.6,50.3,83,69,41,30.22,30.10,7,4,14,0.00
2013-10-27,79.0,69.0,62.4,60.1,58.0,54.7,88,70,44,30.14,30.06,7,3,12,0.00
2013-10-28,81.8,71.5,64.2,63.1,58.3,52.1,82,65,37,30.20,30.10,6,3,13,0.00
2013-10-29,83.7,74.6,66.8,67.6,65.1,61.9,93,74,49,30.23,30.13,9,4,17,0.00
2013-10-30,85.0,76.1,69.2,69.9,67.0,64.9,90,75,52,30.23,30.09,6,4,12,0.00
2013-10-31,86.4,76.8,69.2,71.2,67.9,64.1,93,75,51,30.13,29.97,7,3,17,0.00
2013-11-1,84.4,78.6,73.4,74.7,72.9,70.6,92,83,67,30.01,29.88,10,4,17,0.00
2013-11-2,78.1,72.1,64.0,75.5,68.1,60.2,97,87,76,30.00,29.81,8,3,15,0.29
2013-11-3,74.8,67.7,60.8,62.4,53.4,43.1,91,63,34,30.13,29.98,11,5,20,0.04
2013-11-4,79.5,70.3,61.9,65.0,59.5,53.1,85,69,51,30.16,30.09,13,8,22,0.01
2013-11-5,74.8,68.3,65.8,68.4,65.0,63.4,94,89,79,30.16,30.09,9,5,20,0.00
2013-11-6,85.5,74.8,71.0,69.8,67.9,64.5,89,80,51,30.11,30.01,8,5,16,0.00
2013-11-7,81.4,73.5,69.6,69.7,67.9,66.2,93,83,64,30.07,29.97,7,3,12,0.00
2013-11-8,78.3,71.2,65.7,69.2,63.5,57.5,93,77,59,30.13,30.00,11,6,17,0.00
2013-11-9,81.8,73.3,65.7,69.3,64.6,60.4,84,75,61,30.17,30.08,10,6,17,0.00
2013-11-10,82.1,73.5,67.3,68.8,66.0,63.2,88,78,60,30.18,30.07,6,4,12,0.00
2013-11-11,83.0,73.3,67.0,68.4,66.2,63.4,92,79,58,30.16,30.06,8,4,12,0.00
2013-11-12,79.3,71.5,68.1,69.4,66.5,56.7,93,85,63,30.12,30.02,7,2,12,0.00
2013-11-13,69.9,63.4,58.9,57.2,52.4,49.3,76,67,60,30.26,30.09,12,8,22,0.00
2013-11-14,77.5,61.5,54.2,59.9,53.2,48.9,87,75,50,30.29,30.16,10,6,18,0.00
2013-11-15,71.5,68.1,64.5,66.4,62.9,58.9,91,84,76,30.18,30.05,8,3,15,0.00
2013-11-16,74.2,71.1,68.3,70.8,68.2,65.5,96,91,82,30.13,30.02,10,3,17,0.00
2013-11-17,83.6,75.1,69.6,73.4,68.9,65.4,92,82,66,30.09,29.99,6,2,11,0.00
2013-11-18,83.9,76.3,69.7,73.1,70.7,67.7,95,83,67,30.03,29.93,6,2,13,0.00
2013-11-19,79.8,74.1,67.4,73.2,69.3,61.3,96,85,68,29.98,29.88,7,3,13,0.00
2013-11-20,68.5,66.4,65.6,64.9,62.8,62.1,90,88,86,30.04,29.97,7,4,15,0.00
2013-11-21,84.3,75.6,71.7,72.5,70.5,69.3,94,85,65,30.18,30.07,12,6,22,0.00
2013-11-22,83.8,76.0,70.7,72.4,69.5,66.4,94,81,61,30.19,30.08,9,5,15,0.00
2013-11-23,82.8,73.1,67.5,68.6,66.5,64.5,94,81,57,30.12,30.02,7,3,14,0.00
2013-11-24,70.4,66.3,59.8,68.0,60.4,52.3,93,82,71,30.23,30.04,13,8,23,0.00
2013-11-25,76.3,66.2,59.9,61.6,57.1,52.7,79,73,58,30.23,30.12,12,8,20,0.00
2013-11-26,81.8,74.2,68.6,74.0,70.7,64.6,96,89,74,30.03,29.75,13,7,38,0.02
2013-11-27,72.6,66.2,47.9,71.0,60.1,41.2,96,81,67,30.22,29.74,13,7,26,0.10
2013-11-28,62.8,51.3,40.4,51.1,42.2,31.5,85,72,47,30.36,30.22,10,5,18,0.01
2013-11-29,71.8,61.3,53.1,58.7,54.0,49.4,90,78,56,30.37,30.26,8,6,15,0.00
2013-11-30,75.8,65.0,57.0,64.1,58.9,51.3,92,81,64,30.32,30.17,7,5,14,0.01
2013-12-1,73.0,63.7,59.5,65.5,60.9,58.3,97,91,76,30.20,29.99,6,3,13,0.00
2013-12-2,70.3,64.4,59.3,62.6,58.7,54.1,98,83,59,29.99,29.85,4,2,10,0.00
2013-12-3,79.3,69.4,58.8,68.2,63.0,56.8,96,81,58,29.98,29.88,6,2,13,0.00
2013-12-4,82.5,73.1,67.0,71.4,68.0,65.2,97,85,58,30.08,29.96,5,2,10,0.00
2013-12-5,84.2,73.2,65.6,69.0,66.9,64.4,97,82,55,30.17,30.07,7,2,15,0.00
2013-12-6,84.5,74.6,67.8,72.6,69.5,66.1,97,85,63,30.18,30.08,10,3,19,0.00
2013-12-7,83.7,74.3,68.1,70.2,68.1,63.8,97,83,52,30.23,30.13,6,2,12,0.00
2013-12-8,84.3,74.2,66.9,71.4,68.0,65.4,97,82,59,30.22,30.09,8,2,16,0.00
2013-12-9,83.4,74.6,68.2,72.6,69.1,66.3,95,84,63,30.18,30.08,8,3,16,0.00
2013-12-10,82.5,74.3,66.5,72.1,69.1,65.2,97,85,65,30.17,30.09,8,3,17,0.00
2013-12-11,80.6,70.5,64.5,67.9,64.2,58.5,91,81,62,30.25,30.15,8,5,16,0.00
2013-12-12,72.3,65.3,56.8,66.0,52.9,34.6,95,69,33,30.32,30.19,9,6,16,0.00
2013-12-13,75.4,64.0,54.3,60.3,53.2,41.5,85,69,44,30.29,30.10,10,5,19,0.00
2013-12-14,82.5,73.7,65.7,71.7,67.8,60.0,90,82,65,30.11,29.94,11,6,22,0.00
2013-12-15,74.8,68.2,59.6,73.1,63.3,54.5,96,85,70,30.15,29.89,10,5,18,0.01
2013-12-16,59.7,55.2,49.9,54.5,50.3,44.6,88,83,81,30.19,30.12,7,5,12,0.00
2013-12-17,70.2,56.8,50.6,53.2,47.0,43.1,85,71,41,30.26,30.16,6,4,14,0.00
2013-12-18,70.9,60.5,53.2,53.5,50.1,43.2,93,71,39,30.30,30.21,7,2,12,0.00
2013-12-19,76.0,63.1,52.2,59.3,53.1,46.3,83,71,49,30.28,30.16,6,3,11,0.00
2013-12-20,83.3,71.5,60.9,68.2,63.5,57.4,91,77,58,30.20,30.08,10,3,16,0.00
2013-12-21,85.6,75.2,67.7,71.1,68.5,65.2,95,80,60,30.13,30.01,10,4,18,0.00
2013-12-22,84.1,75.8,69.8,73.0,70.2,68.4,96,84,66,30.13,30.05,12,5,24,0.00
2013-12-23,83.3,75.3,69.2,74.2,71.6,67.8,97,89,74,30.17,30.09,11,4,23,0.00
2013-12-24,74.0,63.6,54.5,71.7,51.7,35.6,95,69,34,30.27,30.12,11,7,18,0.00
2013-12-25,75.0,62.0,48.8,61.2,50.8,37.5,78,67,53,30.27,30.12,9,5,17,0.00
2013-12-26,77.2,66.8,60.4,62.9,59.9,57.0,91,79,54,30.21,30.09,9,4,13,0.00
2013-12-27,69.4,65.4,61.3,66.0,61.8,57.3,93,88,82,30.25,30.14,9,5,15,0.02
2013-12-28,79.1,71.6,65.4,69.9,67.1,63.0,96,86,71,30.21,29.98,9,5,15,0.01
2013-12-29,76.1,70.6,63.8,72.6,68.1,62.0,96,92,86,30.03,29.89,10,5,22,0.01
2013-12-30,67.9,63.3,59.9,62.3,59.6,55.3,95,88,75,30.20,30.01,6,3,12,0.01
2013-12-31,69.0,64.5,61.1,56.3,53.5,50.7,79,68,55,30.30,30.16,7,4,14,0.00
2014-1-1,63.7,61.6,59.4,62.0,58.6,52.0,97,90,66,30.26,30.05,10,6,15,0.00
2014-1-2,79.0,68.7,61.1,73.5,66.7,55.4,99,94,81,30.06,29.84,13,5,25,0.00